createdAt,value
2022-09-14T00:02:14.449Z,21.53
2022-09-14T00:04:40.991Z,21.51
2022-09-14T00:07:07.360Z,21.49
2022-09-14T00:09:33.910Z,21.47
2022-09-14T00:12:00.183Z,21.45
2022-09-14T00:14:26.648Z,21.42
2022-09-14T00:16:53.977Z,21.41
2022-09-14T00:19:20.394Z,21.38
2022-09-14T00:21:46.757Z,21.38
2022-09-14T00:27:04.308Z,21.34
2022-09-14T00:29:30.881Z,21.32
2022-09-14T00:31:57.413Z,21.28
2022-09-14T00:34:23.976Z,21.25
2022-09-14T00:36:50.283Z,21.22
2022-09-14T00:39:16.708Z,21.20
2022-09-14T00:41:43.500Z,21.17
2022-09-14T00:44:09.938Z,21.16
2022-09-14T00:46:36.229Z,21.12
2022-09-14T00:49:02.739Z,21.09
2022-09-14T00:51:29.137Z,21.07
2022-09-14T00:53:56.908Z,21.03
2022-09-14T00:56:23.567Z,21.01
2022-09-14T00:58:50.242Z,20.99
2022-09-14T01:01:17.294Z,20.95
2022-09-14T01:03:43.870Z,20.93
2022-09-14T01:06:10.209Z,20.91
2022-09-14T01:08:36.633Z,20.88
2022-09-14T01:11:03.123Z,20.85
2022-09-14T01:13:29.962Z,20.83
2022-09-14T01:15:56.807Z,20.81
2022-09-14T01:18:23.149Z,20.77
2022-09-14T01:20:49.834Z,20.75
2022-09-14T01:23:16.897Z,20.73
2022-09-14T01:25:43.686Z,20.70
2022-09-14T01:28:10.080Z,20.67
2022-09-14T01:30:36.495Z,20.65
2022-09-14T01:33:02.841Z,20.63
2022-09-14T01:35:30.236Z,20.61
2022-09-14T01:37:58.498Z,20.58
2022-09-14T01:40:26.799Z,20.51
2022-09-14T01:42:53.978Z,20.58
2022-09-14T01:45:20.473Z,20.57
2022-09-14T01:47:48.277Z,20.54
2022-09-14T01:50:14.591Z,20.52
2022-09-14T01:52:40.854Z,20.50
2022-09-14T01:57:52.572Z,20.43
2022-09-14T02:00:22.844Z,20.41
2022-09-14T02:02:49.131Z,20.38
2022-09-14T02:05:15.961Z,20.37
2022-09-14T02:07:42.530Z,20.34
2022-09-14T02:10:09.087Z,20.32
2022-09-14T02:12:35.405Z,20.29
2022-09-14T02:15:02.215Z,20.26
2022-09-14T02:17:28.601Z,20.22
2022-09-14T02:19:54.871Z,20.20
2022-09-14T02:22:21.255Z,20.17
2022-09-14T02:24:48.042Z,20.17
2022-09-14T02:27:14.477Z,20.15
2022-09-14T02:29:40.844Z,20.12
2022-09-14T02:32:08.002Z,20.11
2022-09-14T02:34:34.285Z,20.08
2022-09-14T02:37:00.681Z,20.07
2022-09-14T02:39:27.274Z,20.04
2022-09-14T02:41:53.664Z,20.02
2022-09-14T02:44:20.816Z,20.00
2022-09-14T02:46:48.348Z,19.98
2022-09-14T02:49:14.711Z,19.97
2022-09-14T02:51:41.401Z,19.96
2022-09-14T02:54:08.123Z,19.93
2022-09-14T02:56:34.516Z,19.91
2022-09-14T02:59:01.530Z,19.89
2022-09-14T03:01:28.962Z,19.88
2022-09-14T03:03:55.362Z,19.86
2022-09-14T03:06:23.436Z,19.83
2022-09-14T03:08:50.966Z,19.81
2022-09-14T03:11:17.699Z,19.80
2022-09-14T03:13:45.217Z,19.78
2022-09-14T03:16:12.772Z,19.75
2022-09-14T03:18:39.218Z,19.73
2022-09-14T03:21:05.928Z,19.69
2022-09-14T03:23:32.229Z,19.67
2022-09-14T03:25:59.467Z,19.65
2022-09-14T03:28:25.785Z,19.64
2022-09-14T03:30:52.658Z,19.62
2022-09-14T03:33:19.151Z,19.62
2022-09-14T03:35:46.606Z,19.60
2022-09-14T03:38:13.842Z,19.59
2022-09-14T03:40:40.154Z,19.58
2022-09-14T03:43:06.512Z,19.57
2022-09-14T03:45:38.274Z,19.55
2022-09-14T03:48:05.219Z,19.53
2022-09-14T03:50:31.493Z,19.49
2022-09-14T03:52:59.004Z,19.47
2022-09-14T03:55:25.446Z,19.44
2022-09-14T03:57:53.209Z,19.42
2022-09-14T04:00:19.693Z,19.40
2022-09-14T04:02:46.338Z,19.38
2022-09-14T04:05:14.015Z,19.36
2022-09-14T04:07:40.991Z,19.34
2022-09-14T04:10:07.445Z,19.32
2022-09-14T04:12:33.764Z,19.31
2022-09-14T04:15:00.220Z,19.28
2022-09-14T04:17:27.610Z,19.26
2022-09-14T04:19:54.266Z,19.24
2022-09-14T04:22:20.721Z,19.21
2022-09-14T04:24:47.500Z,19.18
2022-09-14T04:27:13.997Z,19.16
2022-09-14T04:29:40.340Z,19.14
2022-09-14T04:32:06.934Z,19.12
2022-09-14T04:34:33.388Z,19.11
2022-09-14T04:36:59.660Z,19.09
2022-09-14T04:39:27.418Z,19.07
2022-09-14T04:41:53.791Z,19.06
2022-09-14T04:44:22.495Z,19.05
2022-09-14T04:46:48.931Z,19.04
2022-09-14T04:49:16.549Z,19.03
2022-09-14T04:51:43.298Z,19.02
2022-09-14T04:54:09.713Z,19.01
2022-09-14T04:56:36.986Z,19.00
2022-09-14T04:59:03.368Z,18.98
2022-09-14T05:01:29.781Z,18.94
2022-09-14T05:03:56.363Z,18.91
2022-09-14T05:06:23.044Z,18.87
2022-09-14T05:08:49.500Z,18.86
2022-09-14T05:11:15.833Z,18.84
2022-09-14T05:13:44.201Z,18.83
2022-09-14T05:16:15.718Z,18.83
2022-09-14T05:18:43.800Z,18.82
2022-09-14T05:26:44.561Z,18.79
2022-09-14T05:29:17.168Z,18.78
2022-09-14T05:31:44.040Z,18.76
2022-09-14T05:34:10.623Z,18.76
2022-09-14T05:36:37.831Z,18.74
2022-09-14T05:39:04.498Z,18.74
2022-09-14T05:41:31.674Z,18.73
2022-09-14T05:43:57.992Z,18.70
2022-09-14T05:46:24.755Z,18.70
2022-09-14T05:48:53.869Z,18.69
2022-09-14T05:51:20.146Z,18.67
2022-09-14T05:53:46.655Z,18.65
2022-09-14T05:56:13.137Z,18.65
2022-09-14T05:58:40.423Z,18.62
2022-09-14T06:01:06.709Z,18.61
2022-09-14T06:03:33.037Z,18.58
2022-09-14T06:06:02.369Z,18.56
2022-09-14T06:08:28.848Z,18.56
2022-09-14T06:10:55.675Z,18.60
2022-09-14T06:13:22.574Z,18.75
2022-09-14T06:15:49.322Z,18.91
2022-09-14T06:23:52.392Z,19.29
2022-09-14T06:26:19.128Z,19.39
2022-09-14T06:28:45.617Z,19.47
2022-09-14T06:31:13.175Z,19.55
2022-09-14T06:33:39.449Z,19.63
2022-09-14T06:36:05.844Z,19.68
2022-09-14T06:38:32.799Z,19.73
2022-09-14T06:41:00.339Z,19.78
2022-09-14T06:43:29.832Z,19.82
2022-09-14T06:45:56.082Z,19.86
2022-09-14T06:48:22.746Z,19.90
2022-09-14T06:50:49.237Z,19.94
2022-09-14T06:53:15.539Z,19.97
2022-09-14T06:55:41.829Z,20.01
2022-09-14T06:58:08.104Z,20.04
2022-09-14T07:00:34.504Z,20.05
2022-09-14T07:03:02.129Z,20.09
2022-09-14T07:05:28.450Z,20.10
2022-09-14T07:07:54.853Z,20.14
2022-09-14T07:10:21.054Z,20.15
2022-09-14T07:12:47.744Z,20.17
2022-09-14T07:15:14.015Z,20.19
2022-09-14T07:17:40.341Z,20.21
2022-09-14T07:20:08.106Z,20.22
2022-09-14T07:22:35.667Z,20.24
2022-09-14T07:25:03.031Z,20.26
2022-09-14T07:27:30.375Z,20.28
2022-09-14T07:29:57.706Z,20.30
2022-09-14T07:32:24.038Z,20.30
2022-09-14T07:34:50.696Z,20.32
2022-09-14T07:37:17.502Z,20.34
2022-09-14T07:39:44.135Z,20.36
2022-09-14T07:42:10.565Z,20.38
2022-09-14T07:44:37.614Z,20.39
2022-09-14T07:47:05.682Z,20.40
2022-09-14T07:49:31.939Z,20.42
2022-09-14T07:51:58.795Z,20.44
2022-09-14T07:54:25.028Z,20.46
2022-09-14T07:56:51.604Z,20.49
2022-09-14T08:02:07.370Z,20.53
2022-09-14T08:04:34.038Z,20.54
2022-09-14T08:07:01.402Z,20.56
2022-09-14T08:09:27.732Z,20.55
2022-09-14T08:11:54.690Z,20.57
2022-09-14T08:14:21.038Z,20.57
2022-09-14T08:16:47.448Z,20.58
2022-09-14T08:19:17.590Z,20.59
2022-09-14T08:21:46.808Z,20.58
2022-09-14T08:24:14.620Z,20.59
2022-09-14T08:26:42.182Z,20.60
2022-09-14T08:29:09.386Z,20.61
2022-09-14T08:31:35.773Z,20.62
2022-09-14T08:34:02.057Z,20.64
2022-09-14T08:36:28.360Z,20.66
2022-09-14T08:38:55.293Z,20.67
2022-09-14T08:41:21.563Z,20.69
2022-09-14T08:43:47.962Z,20.72
2022-09-14T08:46:14.354Z,20.74
2022-09-14T08:48:40.699Z,20.75
2022-09-14T08:51:07.282Z,20.76
2022-09-14T08:53:34.218Z,20.78
2022-09-14T08:56:00.522Z,20.80
2022-09-14T08:58:27.303Z,20.84
2022-09-14T09:00:54.073Z,20.86
2022-09-14T09:03:20.386Z,20.87
2022-09-14T09:05:46.646Z,20.87
2022-09-14T09:08:12.967Z,20.87
2022-09-14T09:10:39.231Z,20.87
2022-09-14T09:13:05.530Z,20.88
2022-09-14T09:15:31.912Z,20.89
2022-09-14T09:17:58.192Z,20.90
2022-09-14T09:20:24.510Z,20.92
2022-09-14T09:22:50.788Z,20.94
2022-09-14T09:25:18.657Z,20.95
2022-09-14T09:27:44.933Z,20.96
2022-09-14T09:30:11.885Z,20.96
2022-09-14T09:32:40.167Z,20.96
2022-09-14T09:35:07.609Z,20.97
2022-09-14T09:37:33.993Z,21.00
2022-09-14T09:40:01.173Z,21.03
2022-09-14T09:42:27.453Z,21.05
2022-09-14T09:44:57.997Z,21.05
2022-09-14T09:47:27.570Z,21.07
2022-09-14T09:49:54.037Z,21.09
2022-09-14T09:52:20.355Z,21.12
2022-09-14T09:54:46.849Z,21.13
2022-09-14T09:57:13.726Z,21.14
2022-09-14T09:59:40.850Z,21.14
2022-09-14T10:02:08.029Z,21.14
2022-09-14T10:04:35.134Z,21.14
2022-09-14T10:07:01.454Z,21.15
2022-09-14T10:09:27.766Z,21.15
2022-09-14T10:11:54.723Z,21.16
2022-09-14T10:14:21.610Z,21.17
2022-09-14T10:16:49.350Z,21.18
2022-09-14T10:19:17.350Z,21.19
2022-09-14T10:21:43.743Z,21.21
2022-09-14T10:24:10.045Z,21.21
2022-09-14T10:26:36.392Z,21.22
2022-09-14T10:29:03.395Z,21.22
2022-09-14T10:31:29.820Z,21.23
2022-09-14T10:33:56.191Z,21.22
2022-09-14T10:36:22.450Z,21.21
2022-09-14T10:38:49.304Z,21.23
2022-09-14T10:41:15.612Z,21.24
2022-09-14T10:43:42.158Z,21.24
2022-09-14T10:46:08.833Z,21.24
2022-09-14T10:48:35.195Z,21.26
2022-09-14T10:51:01.845Z,21.27
2022-09-14T10:53:28.721Z,21.27
2022-09-14T10:55:55.868Z,21.27
2022-09-14T10:58:24.986Z,21.30
2022-09-14T11:00:51.229Z,21.31
2022-09-14T11:03:18.294Z,21.33
2022-09-14T11:05:44.593Z,21.34
2022-09-14T11:08:11.599Z,21.36
2022-09-14T11:10:38.221Z,21.38
2022-09-14T11:13:04.524Z,21.38
2022-09-14T11:15:30.850Z,21.39
2022-09-14T11:17:57.292Z,21.39
2022-09-14T11:20:23.618Z,21.40
2022-09-14T11:22:50.667Z,21.40
2022-09-14T11:25:17.096Z,21.40
2022-09-14T11:27:44.408Z,21.39
2022-09-14T11:30:10.783Z,21.40
2022-09-14T11:32:37.570Z,21.41
2022-09-14T11:35:03.877Z,21.41
2022-09-14T11:37:30.265Z,21.40
2022-09-14T11:39:56.682Z,21.41
2022-09-14T11:42:23.060Z,21.41
2022-09-14T11:44:49.390Z,21.42
2022-09-14T11:47:15.848Z,21.43
2022-09-14T11:49:45.478Z,21.45
2022-09-14T11:52:12.189Z,21.44
2022-09-14T11:54:38.566Z,21.45
2022-09-14T11:57:04.819Z,21.45
2022-09-14T11:59:31.504Z,21.47
2022-09-14T12:01:57.757Z,21.47
2022-09-14T12:04:24.010Z,21.49
2022-09-14T12:06:50.751Z,21.50
2022-09-14T12:09:17.115Z,21.51
2022-09-14T12:11:43.382Z,21.53
2022-09-14T12:14:09.815Z,21.55
2022-09-14T12:16:36.104Z,21.58
2022-09-14T12:19:02.601Z,21.58
2022-09-14T12:21:29.336Z,21.59
2022-09-14T12:23:56.161Z,21.60
2022-09-14T12:26:22.731Z,21.63
2022-09-14T12:28:49.159Z,21.64
2022-09-14T12:31:15.471Z,21.66
2022-09-14T12:33:41.977Z,21.67
2022-09-14T12:36:08.231Z,21.67
2022-09-14T12:38:35.500Z,21.67
2022-09-14T12:41:01.916Z,21.68
2022-09-14T12:43:28.159Z,21.68
2022-09-14T12:45:54.685Z,21.68
2022-09-14T12:48:22.065Z,21.68
2022-09-14T12:50:48.469Z,21.69
2022-09-14T12:53:15.334Z,21.67
2022-09-14T12:55:41.671Z,21.67
2022-09-14T12:58:08.381Z,21.67
2022-09-14T13:00:37.833Z,21.68
2022-09-14T13:03:05.948Z,21.68
2022-09-14T13:05:33.653Z,21.67
2022-09-14T13:07:59.872Z,21.68
2022-09-14T13:10:27.029Z,21.69
2022-09-14T13:12:54.253Z,21.69
2022-09-14T13:15:20.548Z,21.71
2022-09-14T13:17:47.319Z,21.72
2022-09-14T13:20:13.600Z,21.73
2022-09-14T13:22:39.923Z,21.73
2022-09-14T13:25:06.380Z,21.74
2022-09-14T13:27:32.661Z,21.74
2022-09-14T13:29:59.446Z,21.74
2022-09-14T13:32:26.107Z,21.76
2022-09-14T13:34:52.277Z,21.76
2022-09-14T13:37:18.609Z,21.75
2022-09-14T13:39:44.883Z,21.78
2022-09-14T13:42:11.209Z,21.79
2022-09-14T13:44:37.620Z,21.79
2022-09-14T13:47:04.864Z,21.79
2022-09-14T13:49:31.146Z,21.80
2022-09-14T13:51:57.510Z,21.81
2022-09-14T13:54:23.864Z,21.80
2022-09-14T13:56:50.229Z,21.81
2022-09-14T13:59:18.129Z,21.81
2022-09-14T14:01:44.615Z,21.81
2022-09-14T14:04:11.248Z,21.80
2022-09-14T14:06:37.709Z,21.81
2022-09-14T14:09:04.190Z,21.80
2022-09-14T14:11:30.490Z,21.78
2022-09-14T14:13:57.123Z,21.79
2022-09-14T14:16:23.906Z,21.78
2022-09-14T14:18:50.947Z,21.77
2022-09-14T14:21:17.247Z,21.78
2022-09-14T14:24:02.966Z,21.79
2022-09-14T14:26:30.346Z,21.71
2022-09-14T14:28:56.875Z,21.77
2022-09-14T14:31:24.705Z,21.77
2022-09-14T14:33:51.110Z,21.76
2022-09-14T14:36:17.564Z,21.76
2022-09-14T14:38:43.984Z,21.74
2022-09-14T14:41:10.797Z,21.73
2022-09-14T14:43:37.394Z,21.73
2022-09-14T14:46:03.933Z,21.73
2022-09-14T14:48:31.239Z,21.72
2022-09-14T14:50:57.504Z,21.72
2022-09-14T14:53:24.344Z,21.72
2022-09-14T14:55:50.702Z,21.71
2022-09-14T14:58:18.124Z,21.72
2022-09-14T15:00:44.834Z,21.72
2022-09-14T15:03:11.190Z,21.73
2022-09-14T15:05:37.595Z,21.73
2022-09-14T15:08:04.780Z,21.74
2022-09-14T15:10:31.205Z,21.75
2022-09-14T15:12:57.462Z,21.75
2022-09-14T15:15:24.569Z,21.75
2022-09-14T15:17:50.886Z,21.74
2022-09-14T15:20:17.223Z,21.74
2022-09-14T15:22:43.575Z,21.74
2022-09-14T15:25:11.017Z,21.73
2022-09-14T15:27:37.234Z,21.73
2022-09-14T15:30:03.538Z,21.72
2022-09-14T15:32:29.829Z,21.73
2022-09-14T15:34:57.310Z,21.73
2022-09-14T15:37:29.422Z,21.73
2022-09-14T15:39:56.568Z,21.73
2022-09-14T15:42:22.868Z,21.73
2022-09-14T15:44:50.113Z,21.72
2022-09-14T15:47:17.566Z,21.72
2022-09-14T15:49:47.058Z,21.71
2022-09-14T15:52:13.342Z,21.72
2022-09-14T15:54:39.660Z,21.71
2022-09-14T15:57:07.024Z,21.70
2022-09-14T15:59:33.622Z,21.71
2022-09-14T16:02:00.223Z,21.71
2022-09-14T16:04:27.804Z,21.70
2022-09-14T16:06:54.387Z,21.70
2022-09-14T16:09:22.082Z,21.70
2022-09-14T16:11:48.416Z,21.69
2022-09-14T16:14:15.049Z,21.69
2022-09-14T16:16:41.762Z,21.69
2022-09-14T16:19:09.601Z,21.69
2022-09-14T16:21:36.963Z,21.68
2022-09-14T16:24:03.220Z,21.69
2022-09-14T16:26:29.479Z,21.67
2022-09-14T16:28:56.521Z,21.66
2022-09-14T16:31:22.819Z,21.66
2022-09-14T16:33:49.501Z,21.65
2022-09-14T16:36:16.203Z,21.66
2022-09-14T16:38:43.244Z,21.65
2022-09-14T16:41:10.660Z,21.64
2022-09-14T16:43:38.093Z,21.64
2022-09-14T16:46:04.441Z,21.63
2022-09-14T16:48:31.194Z,21.63
2022-09-14T16:50:57.614Z,21.62
2022-09-14T16:53:24.489Z,21.60
2022-09-14T16:55:50.745Z,21.61
2022-09-14T16:58:19.911Z,21.61
2022-09-14T17:00:46.389Z,21.59
2022-09-14T17:03:12.738Z,21.58
2022-09-14T17:05:41.588Z,21.57
2022-09-14T17:08:12.014Z,21.56
2022-09-14T17:10:38.800Z,21.55
2022-09-14T17:13:05.382Z,21.55
2022-09-14T17:15:31.694Z,21.54
2022-09-14T17:17:58.251Z,21.53
2022-09-14T17:20:25.194Z,21.52
2022-09-14T17:22:51.510Z,21.51
2022-09-14T17:25:17.954Z,21.50
2022-09-14T17:27:44.263Z,21.50
2022-09-14T17:30:10.574Z,21.49
2022-09-14T17:32:36.926Z,21.48
2022-09-14T17:35:03.953Z,21.48
2022-09-14T17:37:30.208Z,21.47
2022-09-14T17:39:56.713Z,21.45
2022-09-14T17:42:23.051Z,21.44
2022-09-14T17:44:50.503Z,21.44
2022-09-14T17:47:16.982Z,21.43
2022-09-14T17:49:43.246Z,21.41
2022-09-14T17:52:09.536Z,21.41
2022-09-14T17:54:36.866Z,21.40
2022-09-14T17:57:03.257Z,21.40
2022-09-14T17:59:29.558Z,21.39
2022-09-14T18:01:55.866Z,21.38
2022-09-14T18:04:22.786Z,21.38
2022-09-14T18:06:49.617Z,21.38
2022-09-14T18:09:16.408Z,21.38
2022-09-14T18:11:45.131Z,21.37
2022-09-14T18:14:11.995Z,21.38
2022-09-14T18:16:38.413Z,21.36
2022-09-14T18:19:04.747Z,21.35
2022-09-14T18:21:30.993Z,21.34
2022-09-14T18:23:58.022Z,21.34
2022-09-14T18:26:24.294Z,21.34
2022-09-14T18:28:51.277Z,21.34
2022-09-14T18:31:17.951Z,21.35
2022-09-14T18:33:44.347Z,21.34
2022-09-14T18:36:10.706Z,21.33
2022-09-14T18:38:37.994Z,21.33
2022-09-14T18:41:06.036Z,21.33
2022-09-14T18:43:32.919Z,21.31
2022-09-14T18:45:59.308Z,21.30
2022-09-14T18:48:27.061Z,21.30
2022-09-14T18:50:53.543Z,21.28
2022-09-14T18:53:21.236Z,21.27
2022-09-14T18:55:47.645Z,21.27
2022-09-14T18:58:14.107Z,21.28
2022-09-14T19:00:40.443Z,21.18
2022-09-14T19:03:06.751Z,21.27
2022-09-14T19:05:33.279Z,21.28
2022-09-14T19:07:59.750Z,21.27
2022-09-14T19:10:26.190Z,21.27
2022-09-14T19:12:52.482Z,21.27
2022-09-14T19:15:18.851Z,21.26
2022-09-14T19:17:45.851Z,21.25
2022-09-14T19:20:12.282Z,21.24
2022-09-14T19:22:38.514Z,21.24
2022-09-14T19:25:04.858Z,21.23
2022-09-14T19:27:31.266Z,21.23
2022-09-14T19:29:57.943Z,21.23
2022-09-14T19:32:24.216Z,21.23
2022-09-14T19:34:50.510Z,21.23
2022-09-14T19:37:17.405Z,21.22
2022-09-14T19:39:43.778Z,21.21
2022-09-14T19:42:10.115Z,21.21
2022-09-14T19:44:36.427Z,21.20
2022-09-14T19:47:02.772Z,21.19
2022-09-14T19:49:29.079Z,21.18
2022-09-14T19:51:55.330Z,21.18
2022-09-14T19:54:21.582Z,21.18
2022-09-14T19:56:48.005Z,21.17
2022-09-14T19:59:14.343Z,21.17
2022-09-14T20:01:43.713Z,21.16
2022-09-14T20:04:10.223Z,21.14
2022-09-14T20:06:36.488Z,21.14
2022-09-14T20:09:02.965Z,21.14
2022-09-14T20:11:29.306Z,21.13
2022-09-14T20:13:56.007Z,21.11
2022-09-14T20:16:22.502Z,21.11
2022-09-14T20:18:48.807Z,21.11
2022-09-14T20:21:15.086Z,21.11
2022-09-14T20:23:57.928Z,21.09
2022-09-14T20:26:28.096Z,21.08
2022-09-14T20:28:54.436Z,21.09
2022-09-14T20:31:20.870Z,21.09
2022-09-14T20:33:47.224Z,21.07
2022-09-14T20:36:13.554Z,21.08
2022-09-14T20:38:40.011Z,21.06
2022-09-14T20:41:06.259Z,21.07
2022-09-14T20:43:32.634Z,21.06
2022-09-14T20:45:58.993Z,21.06
2022-09-14T20:48:25.779Z,21.05
2022-09-14T20:50:52.158Z,21.04
2022-09-14T20:53:18.482Z,21.03
2022-09-14T20:55:45.437Z,21.05
2022-09-14T20:58:12.030Z,21.03
2022-09-14T21:00:38.338Z,21.04
2022-09-14T21:03:04.842Z,21.04
2022-09-14T21:05:31.258Z,21.03
2022-09-14T21:07:57.634Z,21.02
2022-09-14T21:10:28.641Z,21.03
2022-09-14T21:12:55.859Z,21.02
2022-09-14T21:15:22.151Z,21.01
2022-09-14T21:17:48.617Z,21.02
2022-09-14T21:20:15.064Z,21.01
2022-09-14T21:22:41.352Z,21.00
2022-09-14T21:25:07.633Z,21.00
2022-09-14T21:27:34.061Z,20.98
2022-09-14T21:30:00.383Z,20.98
2022-09-14T21:32:26.644Z,20.97
2022-09-14T21:34:52.976Z,20.96
2022-09-14T21:37:19.267Z,20.95
2022-09-14T21:39:48.835Z,20.94
2022-09-14T21:42:15.264Z,20.94
2022-09-14T21:44:41.498Z,20.93
2022-09-14T21:47:08.233Z,20.83
2022-09-14T21:49:34.477Z,20.92
2022-09-14T21:52:01.146Z,20.92
2022-09-14T21:54:27.546Z,20.91
2022-09-14T21:56:53.802Z,20.90
2022-09-14T21:59:20.027Z,20.89
2022-09-14T22:01:46.451Z,20.87
2022-09-14T22:04:12.738Z,20.86
2022-09-14T22:06:39.021Z,20.85
2022-09-14T22:09:05.309Z,20.83
2022-09-14T22:11:31.791Z,20.82
2022-09-14T22:13:58.142Z,20.82
2022-09-14T22:16:24.436Z,20.79
2022-09-14T22:18:50.825Z,20.79
2022-09-14T22:21:17.171Z,20.77
2022-09-14T22:23:44.410Z,20.65
2022-09-14T22:26:11.104Z,20.74
2022-09-14T22:28:37.505Z,20.75
2022-09-14T22:31:04.118Z,20.73
2022-09-14T22:33:30.424Z,20.72
2022-09-14T22:35:57.021Z,20.71
2022-09-14T22:38:23.333Z,20.70
2022-09-14T22:40:50.060Z,20.69
2022-09-14T22:43:16.738Z,20.67
2022-09-14T22:45:43.305Z,20.66
2022-09-14T22:48:09.594Z,20.65
2022-09-14T22:50:36.152Z,20.66
2022-09-14T22:53:02.868Z,20.64
2022-09-14T22:55:29.162Z,20.63
2022-09-14T22:57:55.455Z,20.62
2022-09-14T23:00:21.917Z,20.59
2022-09-14T23:02:48.352Z,20.58
2022-09-14T23:05:14.626Z,20.58
2022-09-14T23:07:40.951Z,20.57
2022-09-14T23:10:07.357Z,20.57
2022-09-14T23:12:34.192Z,20.55
2022-09-14T23:15:00.448Z,20.54
2022-09-14T23:17:26.737Z,20.53
2022-09-14T23:19:53.062Z,20.51
2022-09-14T23:22:19.306Z,20.51
2022-09-14T23:24:46.028Z,20.50
2022-09-14T23:27:12.336Z,20.48
2022-09-14T23:29:38.584Z,20.47
2022-09-14T23:32:04.958Z,20.47
2022-09-14T23:34:31.544Z,20.46
2022-09-14T23:36:58.069Z,20.45
2022-09-14T23:39:24.349Z,20.44
2022-09-14T23:41:50.566Z,20.43
2022-09-14T23:44:16.933Z,20.41
2022-09-14T23:46:43.274Z,20.41
2022-09-14T23:49:09.918Z,20.40
2022-09-14T23:51:36.160Z,20.39
2022-09-14T23:54:04.396Z,20.38
2022-09-14T23:56:30.661Z,20.36
2022-09-14T23:58:57.047Z,20.35
